createdAt,value
2022-11-24T00:01:36.165Z,3.00
2022-11-24T00:06:58.512Z,2.99
2022-11-24T00:12:20.227Z,3.19
2022-11-24T00:17:42.029Z,3.27
2022-11-24T00:23:04.588Z,3.37
2022-11-24T00:28:26.818Z,3.37
2022-11-24T00:33:50.551Z,3.35
2022-11-24T00:39:14.244Z,3.47
2022-11-24T00:44:36.020Z,3.62
2022-11-24T00:49:57.845Z,3.81
2022-11-24T00:55:19.875Z,3.87
2022-11-24T01:00:41.906Z,3.92
2022-11-24T01:06:05.442Z,3.99
2022-11-24T01:11:54.966Z,4.05
2022-11-24T01:17:16.997Z,4.09
2022-11-24T01:22:39.432Z,4.08
2022-11-24T01:28:01.456Z,4.08
2022-11-24T01:33:23.084Z,4.09
2022-11-24T01:38:45.018Z,4.11
2022-11-24T01:44:41.064Z,4.12
2022-11-24T01:50:03.760Z,4.13
2022-11-24T01:55:29.797Z,4.14
2022-11-24T02:00:52.372Z,4.11
2022-11-24T02:06:17.556Z,4.09
2022-11-24T02:11:40.090Z,4.09
2022-11-24T02:17:01.871Z,4.11
2022-11-24T02:22:29.568Z,4.04
2022-11-24T02:27:54.212Z,3.77
2022-11-24T02:33:16.894Z,3.83
2022-11-24T02:38:38.920Z,3.92
2022-11-24T02:44:01.853Z,3.92
2022-11-24T02:49:24.687Z,3.78
2022-11-24T02:54:46.716Z,3.70
2022-11-24T03:00:09.749Z,3.56
2022-11-24T03:05:31.680Z,3.51
2022-11-24T03:10:54.713Z,3.58
2022-11-24T03:16:16.796Z,3.60
2022-11-24T03:21:38.871Z,3.63
2022-11-24T03:27:01.101Z,3.73
2022-11-24T03:32:23.036Z,3.81
2022-11-24T03:37:45.076Z,3.90
2022-11-24T03:43:07.098Z,3.95
2022-11-24T03:48:29.020Z,3.98
2022-11-24T03:53:50.749Z,4.02
2022-11-24T03:59:12.677Z,3.88
2022-11-24T04:04:34.993Z,3.72
2022-11-24T04:09:57.042Z,3.63
2022-11-24T04:15:20.183Z,3.72
2022-11-24T04:20:42.836Z,3.81
2022-11-24T04:26:04.633Z,3.91
2022-11-24T04:31:26.409Z,4.02
2022-11-24T04:36:48.694Z,4.04
2022-11-24T04:42:11.028Z,4.03
2022-11-24T04:47:33.555Z,3.96
2022-11-24T04:52:55.586Z,3.93
2022-11-24T04:58:17.716Z,3.97
2022-11-24T05:03:40.448Z,3.94
2022-11-24T05:09:02.193Z,3.98
2022-11-24T05:14:24.234Z,3.96
2022-11-24T05:19:46.090Z,3.96
2022-11-24T05:25:08.738Z,3.92
2022-11-24T05:30:34.007Z,3.85
2022-11-24T05:36:01.314Z,3.67
2022-11-24T05:41:23.586Z,3.61
2022-11-24T05:46:45.457Z,3.62
2022-11-24T05:52:07.444Z,3.62
2022-11-24T05:57:29.373Z,3.62
2022-11-24T06:02:51.263Z,3.61
2022-11-24T06:08:13.658Z,3.59
2022-11-24T06:13:35.929Z,3.58
2022-11-24T06:18:58.195Z,3.60
2022-11-24T06:24:20.332Z,3.62
2022-11-24T06:29:42.851Z,3.63
2022-11-24T06:35:06.590Z,3.64
2022-11-24T06:40:28.521Z,3.65
2022-11-24T06:45:53.604Z,3.68
2022-11-24T06:51:15.390Z,3.72
2022-11-24T06:56:37.620Z,3.68
2022-11-24T07:01:59.613Z,3.61
2022-11-24T07:07:21.661Z,3.71
2022-11-24T07:12:43.709Z,3.79
2022-11-24T07:18:05.539Z,3.82
2022-11-24T07:23:27.569Z,3.79
2022-11-24T07:28:49.454Z,3.84
2022-11-24T07:34:11.629Z,3.91
2022-11-24T07:39:33.779Z,3.93
2022-11-24T07:44:55.690Z,3.97
2022-11-24T07:50:17.820Z,4.02
2022-11-24T07:55:39.490Z,4.02
2022-11-24T08:01:15.801Z,4.07
2022-11-24T08:06:42.073Z,4.13
2022-11-24T08:12:07.814Z,4.16
2022-11-24T08:17:29.861Z,4.13
2022-11-24T08:22:51.981Z,4.09
2022-11-24T08:28:14.030Z,4.10
2022-11-24T08:33:36.647Z,4.09
2022-11-24T08:38:59.801Z,4.13
2022-11-24T08:44:21.779Z,4.13
2022-11-24T08:49:43.635Z,4.14
2022-11-24T08:55:05.937Z,4.15
2022-11-24T09:00:27.739Z,4.13
2022-11-24T09:05:52.546Z,4.07
2022-11-24T09:11:17.333Z,4.05
2022-11-24T09:16:39.325Z,4.05
2022-11-24T09:22:01.239Z,4.04
2022-11-24T09:27:23.375Z,4.01
2022-11-24T09:32:45.000Z,3.97
2022-11-24T09:38:06.869Z,3.98
2022-11-24T09:43:40.101Z,4.04
2022-11-24T09:49:03.682Z,4.06
2022-11-24T09:54:28.850Z,4.08
2022-11-24T09:59:51.095Z,4.04
2022-11-24T10:05:13.287Z,4.02
2022-11-24T10:10:44.686Z,4.00
2022-11-24T10:16:38.483Z,4.03
2022-11-24T10:22:09.429Z,4.05
2022-11-24T10:27:46.063Z,4.11
2022-11-24T10:33:15.896Z,4.07
2022-11-24T10:38:52.922Z,4.04
2022-11-24T10:44:15.713Z,4.09
2022-11-24T10:49:37.959Z,4.18
2022-11-24T10:55:01.983Z,4.22
2022-11-24T11:00:30.910Z,4.23
2022-11-24T11:06:01.379Z,4.21
2022-11-24T11:11:44.681Z,4.05
2022-11-24T11:17:33.412Z,4.07
2022-11-24T11:22:56.394Z,4.15
2022-11-24T11:28:18.779Z,4.17
2022-11-24T11:39:24.182Z,4.27
2022-11-24T11:44:56.808Z,4.27
2022-11-24T11:50:47.462Z,4.26
2022-11-24T11:56:23.286Z,4.26
2022-11-24T12:02:10.149Z,4.27
2022-11-24T12:07:53.554Z,4.37
2022-11-24T12:13:39.983Z,4.46
2022-11-24T12:19:02.065Z,4.53
2022-11-24T12:24:54.513Z,4.46
2022-11-24T12:30:18.283Z,4.47
2022-11-24T12:35:44.065Z,4.51
2022-11-24T12:41:43.464Z,4.50
2022-11-24T12:47:08.116Z,4.48
2022-11-24T12:52:40.461Z,4.47
2022-11-24T12:58:30.928Z,4.49
2022-11-24T13:04:02.116Z,4.46
2022-11-24T13:09:23.864Z,4.48
2022-11-24T13:14:47.237Z,4.46
2022-11-24T13:20:21.574Z,4.41
2022-11-24T13:26:16.303Z,4.55
2022-11-24T13:31:38.503Z,4.51
2022-11-24T13:37:32.103Z,4.48
2022-11-24T13:42:54.692Z,4.48
2022-11-24T13:48:19.814Z,4.48
2022-11-24T13:53:47.808Z,4.42
2022-11-24T13:59:26.652Z,4.35
2022-11-24T14:04:48.890Z,4.37
2022-11-24T14:10:20.119Z,4.41
2022-11-24T14:15:41.952Z,4.42
2022-11-24T14:21:24.007Z,4.44
2022-11-24T14:26:46.671Z,4.42
2022-11-24T14:32:16.129Z,4.38
2022-11-24T14:37:38.219Z,4.37
2022-11-24T14:42:59.745Z,4.41
2022-11-24T14:48:33.617Z,4.45
2022-11-24T14:53:59.226Z,4.46
2022-11-24T14:59:23.131Z,4.46
2022-11-24T15:05:04.974Z,4.51
2022-11-24T15:10:36.972Z,4.54
2022-11-24T15:16:03.371Z,4.51
2022-11-24T15:21:33.596Z,4.45
2022-11-24T15:27:00.495Z,4.48
2022-11-24T15:32:22.107Z,4.51
2022-11-24T15:37:44.604Z,4.54
2022-11-24T15:43:17.746Z,4.55
2022-11-24T15:48:39.780Z,4.61
2022-11-24T15:54:01.839Z,4.64
2022-11-24T15:59:23.871Z,4.62
2022-11-24T16:04:45.972Z,4.57
2022-11-24T16:10:18.021Z,4.56
2022-11-24T16:15:40.002Z,4.56
2022-11-24T16:21:01.823Z,4.59
2022-11-24T16:26:23.944Z,4.64
2022-11-24T16:31:47.309Z,4.71
2022-11-24T16:37:10.030Z,4.75
2022-11-24T16:42:32.821Z,4.75
2022-11-24T16:47:55.343Z,4.75
2022-11-24T16:53:17.707Z,4.73
2022-11-24T16:58:40.882Z,4.69
2022-11-24T17:04:02.609Z,4.69
2022-11-24T17:09:24.559Z,4.70
2022-11-24T17:15:03.375Z,4.73
2022-11-24T17:20:28.639Z,4.73
2022-11-24T17:25:50.962Z,4.78
2022-11-24T17:31:24.187Z,4.78
2022-11-24T17:36:46.344Z,4.73
2022-11-24T17:42:08.688Z,4.74
2022-11-24T17:47:30.818Z,4.69
2022-11-24T17:52:53.453Z,4.70
2022-11-24T17:58:15.278Z,4.68
2022-11-24T18:03:39.309Z,4.73
2022-11-24T18:09:00.993Z,4.84
2022-11-24T18:14:23.072Z,4.88
2022-11-24T18:19:45.745Z,4.80
2022-11-24T18:25:08.176Z,4.78
2022-11-24T18:30:30.069Z,4.83
2022-11-24T18:36:02.081Z,4.82
2022-11-24T18:41:23.879Z,4.83
2022-11-24T18:46:45.845Z,4.84
2022-11-24T18:52:07.812Z,4.82
2022-11-24T18:57:31.525Z,4.86
2022-11-24T19:02:53.831Z,4.86
2022-11-24T19:08:15.992Z,4.87
2022-11-24T19:13:37.766Z,4.88
2022-11-24T19:19:02.003Z,4.89
2022-11-24T19:24:23.910Z,4.80
2022-11-24T19:29:47.772Z,4.77
2022-11-24T19:35:09.682Z,4.84
2022-11-24T19:40:31.664Z,4.89
2022-11-24T19:45:53.700Z,4.89
2022-11-24T19:51:21.165Z,4.88
2022-11-24T19:56:43.078Z,4.89
2022-11-24T20:02:04.953Z,4.88
2022-11-24T20:07:27.105Z,4.80
2022-11-24T20:12:48.841Z,4.65
2022-11-24T20:18:10.764Z,4.43
2022-11-24T20:23:33.061Z,4.53
2022-11-24T20:28:56.355Z,4.66
2022-11-24T20:34:19.015Z,4.69
2022-11-24T20:39:40.677Z,4.62
2022-11-24T20:45:02.414Z,4.66
2022-11-24T20:50:24.500Z,4.68
2022-11-24T20:55:46.239Z,4.63
2022-11-24T21:01:09.319Z,4.47
2022-11-24T21:06:31.708Z,4.50
2022-11-24T21:11:54.800Z,4.47
2022-11-24T21:17:16.653Z,4.19
2022-11-24T21:22:40.255Z,4.01
2022-11-24T21:28:02.341Z,4.01
2022-11-24T21:33:24.936Z,4.18
2022-11-24T21:38:57.119Z,4.30
2022-11-24T21:44:19.238Z,4.35
2022-11-24T21:49:41.143Z,4.39
2022-11-24T21:55:03.163Z,4.40
2022-11-24T22:00:24.968Z,4.42
2022-11-24T22:05:56.915Z,4.33
2022-11-24T22:11:24.436Z,4.28
2022-11-24T22:16:46.575Z,4.16
2022-11-24T22:22:08.623Z,4.14
2022-11-24T22:27:30.855Z,4.17
2022-11-24T22:32:53.294Z,4.22
2022-11-24T22:38:15.122Z,4.21
2022-11-24T22:43:38.252Z,4.25
2022-11-24T22:49:01.633Z,4.31
2022-11-24T22:54:23.483Z,4.27
2022-11-24T22:59:45.409Z,4.27
2022-11-24T23:05:08.480Z,4.22
2022-11-24T23:10:30.402Z,4.22
2022-11-24T23:15:52.335Z,4.20
2022-11-24T23:21:19.477Z,4.11
2022-11-24T23:26:41.891Z,4.07
2022-11-24T23:32:04.180Z,4.07
2022-11-24T23:37:39.425Z,4.07
2022-11-24T23:43:08.171Z,4.09
2022-11-24T23:48:30.064Z,4.06
2022-11-24T23:53:52.933Z,4.03
2022-11-24T23:59:14.662Z,4.07
